createdAt,value
2023-03-01T00:01:39.231Z,17.33
2023-03-01T00:04:20.901Z,17.34
2023-03-01T00:07:09.153Z,17.29
2023-03-01T00:09:52.957Z,17.12
2023-03-01T00:12:35.064Z,16.97
2023-03-01T00:15:23.905Z,17.06
2023-03-01T00:18:12.932Z,17.14
2023-03-01T00:21:03.221Z,17.08
2023-03-01T00:23:51.953Z,17.12
2023-03-01T00:26:35.160Z,17.17
2023-03-01T00:29:24.277Z,17.13
2023-03-01T00:32:06.328Z,17.08
2023-03-01T00:35:03.013Z,17.03
2023-03-01T00:37:45.389Z,17.15
2023-03-01T00:40:34.957Z,17.16
2023-03-01T00:43:17.577Z,17.00
2023-03-01T00:46:10.996Z,16.97
2023-03-01T00:48:53.180Z,17.11
2023-03-01T00:51:42.944Z,17.14
2023-03-01T00:54:25.183Z,17.07
2023-03-01T00:57:13.962Z,17.01
2023-03-01T00:59:56.195Z,17.05
2023-03-01T01:02:46.040Z,16.96
2023-03-01T01:05:28.143Z,17.07
2023-03-01T01:08:16.902Z,17.03
2023-03-01T01:10:59.168Z,17.00
2023-03-01T01:13:48.948Z,16.90
2023-03-01T01:16:39.994Z,16.85
2023-03-01T01:19:29.179Z,16.75
2023-03-01T01:22:11.931Z,16.77
2023-03-01T01:25:00.282Z,16.72
2023-03-01T01:27:42.978Z,16.65
2023-03-01T01:30:31.254Z,16.75
2023-03-01T01:33:12.934Z,16.80
2023-03-01T01:36:02.252Z,16.77
2023-03-01T01:38:45.870Z,16.76
2023-03-01T01:41:37.142Z,16.82
2023-03-01T01:44:34.876Z,16.81
2023-03-01T01:47:24.443Z,16.87
2023-03-01T01:50:12.876Z,16.90
2023-03-01T01:53:17.747Z,16.72
2023-03-01T01:56:16.927Z,16.67
2023-03-01T01:59:00.028Z,16.82
2023-03-01T02:01:48.914Z,16.89
2023-03-01T02:04:33.390Z,16.93
2023-03-01T02:07:37.265Z,17.06
2023-03-01T02:10:26.203Z,16.93
2023-03-01T02:13:09.932Z,17.15
2023-03-01T02:15:59.255Z,17.10
2023-03-01T02:18:41.945Z,17.34
2023-03-01T02:21:39.820Z,17.35
2023-03-01T02:24:37.895Z,17.37
2023-03-01T02:27:31.193Z,17.40
2023-03-01T02:30:14.882Z,17.43
2023-03-01T02:33:06.173Z,17.55
2023-03-01T02:35:48.985Z,17.77
2023-03-01T02:38:39.167Z,18.41
2023-03-01T02:41:24.959Z,18.68
2023-03-01T02:44:15.262Z,19.26
2023-03-01T02:47:02.933Z,19.40
2023-03-01T02:49:51.143Z,19.68
2023-03-01T02:52:50.919Z,19.89
2023-03-01T02:55:45.735Z,19.91
2023-03-01T02:58:34.892Z,20.53
2023-03-01T03:01:17.907Z,20.55
2023-03-01T03:04:09.930Z,20.79
2023-03-01T03:06:55.242Z,20.96
2023-03-01T03:09:42.961Z,20.62
2023-03-01T03:12:25.198Z,20.80
2023-03-01T03:15:18.259Z,20.79
2023-03-01T03:18:01.254Z,20.96
2023-03-01T03:20:51.908Z,21.04
2023-03-01T03:23:34.215Z,21.56
2023-03-01T03:26:24.030Z,21.88
2023-03-01T03:29:06.342Z,21.79
2023-03-01T03:31:55.047Z,21.88
2023-03-01T03:34:37.176Z,22.00
2023-03-01T03:37:44.050Z,22.88
2023-03-01T03:40:26.203Z,22.97
2023-03-01T03:43:17.887Z,23.42
2023-03-01T03:46:00.292Z,23.05
2023-03-01T03:48:53.879Z,22.98
2023-03-01T03:51:36.129Z,22.79
2023-03-01T03:54:25.869Z,23.37
2023-03-01T03:57:20.715Z,23.15
2023-03-01T04:00:09.931Z,23.52
2023-03-01T04:02:52.293Z,23.03
2023-03-01T04:05:40.920Z,24.01
2023-03-01T04:08:23.326Z,24.13
2023-03-01T04:11:33.023Z,24.79
2023-03-01T04:14:15.189Z,24.65
2023-03-01T04:17:03.933Z,23.84
2023-03-01T04:19:46.177Z,24.73
2023-03-01T04:22:37.937Z,24.86
2023-03-01T04:25:20.159Z,24.95
2023-03-01T04:28:08.942Z,25.31
2023-03-01T04:30:51.224Z,23.71
2023-03-01T04:33:39.875Z,24.40
2023-03-01T04:36:24.646Z,24.68
2023-03-01T04:39:20.920Z,24.67
2023-03-01T04:42:03.269Z,24.98
2023-03-01T04:44:52.915Z,25.20
2023-03-01T04:47:35.187Z,25.29
2023-03-01T04:50:29.018Z,24.98
2023-03-01T04:53:11.202Z,26.10
2023-03-01T04:56:00.203Z,25.82
2023-03-01T04:58:42.134Z,25.20
2023-03-01T05:01:30.925Z,25.30
2023-03-01T05:04:15.447Z,25.32
2023-03-01T05:07:04.950Z,25.27
2023-03-01T05:09:47.288Z,25.87
2023-03-01T05:12:36.907Z,24.80
2023-03-01T05:15:19.345Z,25.09
2023-03-01T05:18:08.909Z,24.83
2023-03-01T05:20:51.155Z,25.57
2023-03-01T05:23:40.895Z,25.14
2023-03-01T05:26:30.613Z,25.20
2023-03-01T05:29:19.907Z,24.69
2023-03-01T05:32:03.202Z,24.61
2023-03-01T05:34:52.893Z,25.32
2023-03-01T05:37:35.146Z,25.76
2023-03-01T05:40:28.870Z,25.90
2023-03-01T05:43:11.188Z,25.96
2023-03-01T05:45:59.880Z,25.95
2023-03-01T05:48:42.186Z,25.70
2023-03-01T05:51:30.904Z,25.75
2023-03-01T05:54:13.167Z,25.45
2023-03-01T05:57:01.860Z,25.36
2023-03-01T05:59:50.955Z,26.32
2023-03-01T06:02:40.350Z,26.65
2023-03-01T06:05:23.954Z,26.61
2023-03-01T06:08:06.436Z,26.93
2023-03-01T06:10:56.018Z,27.13
2023-03-01T06:13:45.201Z,27.35
2023-03-01T06:16:26.926Z,27.08
2023-03-01T06:19:16.161Z,26.98
2023-03-01T06:21:57.870Z,26.75
2023-03-01T06:24:40.120Z,26.36
2023-03-01T06:27:28.898Z,27.00
2023-03-01T06:30:23.178Z,26.92
2023-03-01T06:33:08.910Z,27.45
2023-03-01T06:35:57.657Z,27.67
2023-03-01T06:38:39.926Z,27.80
2023-03-01T06:41:28.928Z,27.49
2023-03-01T06:44:11.143Z,27.42
2023-03-01T06:47:00.296Z,27.62
2023-03-01T06:49:42.365Z,27.40
2023-03-01T06:52:30.925Z,26.99
2023-03-01T06:55:20.908Z,27.35
2023-03-01T06:58:11.320Z,27.09
2023-03-01T07:00:52.932Z,27.12
2023-03-01T07:03:35.100Z,27.37
2023-03-01T07:06:23.883Z,27.20
2023-03-01T07:09:12.919Z,27.36
2023-03-01T07:11:55.260Z,26.89
2023-03-01T07:14:43.987Z,27.40
2023-03-01T07:17:26.132Z,27.53
2023-03-01T07:20:14.905Z,27.50
2023-03-01T07:22:57.249Z,27.38
2023-03-01T07:25:46.004Z,27.38
2023-03-01T07:28:28.360Z,27.35
2023-03-01T07:31:16.967Z,26.86
2023-03-01T07:33:59.232Z,26.33
2023-03-01T07:36:47.849Z,26.92
2023-03-01T07:39:30.190Z,26.75
2023-03-01T07:42:18.958Z,26.82
2023-03-01T07:45:01.246Z,26.76
2023-03-01T07:47:50.238Z,26.77
2023-03-01T07:50:32.187Z,26.53
2023-03-01T07:53:20.867Z,26.61
2023-03-01T07:56:11.163Z,26.68
2023-03-01T07:58:53.909Z,26.36
2023-03-01T08:01:42.955Z,26.67
2023-03-01T08:04:26.890Z,26.28
2023-03-01T08:07:15.885Z,26.23
2023-03-01T08:09:58.183Z,26.41
2023-03-01T08:12:46.852Z,26.32
2023-03-01T08:15:29.272Z,26.40
2023-03-01T08:18:17.906Z,26.42
2023-03-01T08:21:00.117Z,26.35
2023-03-01T08:23:49.917Z,26.24
2023-03-01T08:26:32.421Z,26.00
2023-03-01T08:29:21.872Z,26.23
2023-03-01T08:32:04.304Z,26.19
2023-03-01T08:34:55.951Z,26.30
2023-03-01T08:37:38.168Z,26.41
2023-03-01T08:40:26.887Z,26.26
2023-03-01T08:43:15.944Z,26.34
2023-03-01T08:45:58.229Z,25.41
2023-03-01T08:48:46.910Z,25.73
2023-03-01T08:51:38.631Z,25.69
2023-03-01T08:54:23.880Z,25.77
2023-03-01T08:57:12.171Z,25.75
2023-03-01T08:59:54.948Z,25.65
2023-03-01T09:02:44.282Z,25.60
2023-03-01T09:05:25.899Z,25.81
2023-03-01T09:08:14.264Z,25.74
2023-03-01T09:10:56.971Z,25.71
2023-03-01T09:13:46.225Z,25.49
2023-03-01T09:16:30.295Z,25.59
2023-03-01T09:19:20.299Z,25.59
2023-03-01T09:22:02.064Z,25.49
2023-03-01T09:24:50.168Z,25.53
2023-03-01T09:27:33.924Z,25.28
2023-03-01T09:30:16.607Z,25.01
2023-03-01T09:33:05.931Z,25.15
2023-03-01T09:35:54.243Z,24.95
2023-03-01T09:38:36.907Z,24.80
2023-03-01T09:41:34.220Z,24.88
2023-03-01T09:44:52.987Z,24.89
2023-03-01T09:47:39.039Z,24.84
2023-03-01T09:50:33.920Z,24.77
2023-03-01T09:53:29.122Z,24.97
2023-03-01T09:56:33.138Z,24.92
2023-03-01T09:59:30.159Z,24.84
2023-03-01T10:02:24.404Z,25.01
2023-03-01T10:05:37.588Z,25.02
2023-03-01T10:08:35.863Z,25.10
2023-03-01T10:11:28.512Z,24.85
2023-03-01T10:14:40.962Z,24.80
2023-03-01T10:17:41.360Z,24.74
2023-03-01T10:20:33.271Z,24.99
2023-03-01T10:23:22.396Z,24.78
2023-03-01T10:26:18.941Z,24.96
2023-03-01T10:29:12.227Z,24.94
2023-03-01T10:32:00.020Z,24.89
2023-03-01T10:34:48.199Z,24.85
2023-03-01T10:37:33.015Z,24.91
2023-03-01T10:40:21.171Z,24.74
2023-03-01T10:43:08.964Z,24.81
2023-03-01T10:45:58.272Z,24.68
2023-03-01T10:48:39.907Z,24.67
2023-03-01T10:51:28.468Z,24.55
2023-03-01T10:54:12.943Z,24.67
2023-03-01T10:57:11.704Z,24.69
2023-03-01T11:00:24.910Z,24.39
2023-03-01T11:03:07.329Z,24.36
2023-03-01T11:06:09.987Z,24.17
2023-03-01T11:08:55.986Z,24.26
2023-03-01T11:11:45.945Z,24.11
2023-03-01T11:14:32.278Z,23.97
2023-03-01T11:17:53.169Z,24.00
2023-03-01T11:20:46.420Z,23.96
2023-03-01T11:23:37.221Z,23.95
2023-03-01T11:26:22.279Z,23.94
2023-03-01T11:29:21.980Z,23.91
2023-03-01T11:32:10.319Z,23.77
2023-03-01T11:35:14.904Z,23.85
2023-03-01T11:38:07.173Z,23.86
2023-03-01T11:41:01.852Z,23.84
2023-03-01T11:44:09.942Z,23.82
2023-03-01T11:47:24.445Z,23.82
2023-03-01T11:50:21.936Z,23.84
2023-03-01T11:53:22.129Z,23.78
2023-03-01T11:56:14.741Z,23.73
2023-03-01T11:59:06.318Z,23.49
2023-03-01T12:02:14.968Z,23.59
2023-03-01T12:05:25.795Z,23.57
2023-03-01T12:08:34.519Z,23.51
2023-03-01T12:11:43.597Z,23.45
2023-03-01T12:14:50.977Z,23.45
2023-03-01T12:17:52.207Z,23.45
2023-03-01T12:20:37.988Z,23.37
2023-03-01T12:23:39.215Z,23.09
2023-03-01T12:26:37.597Z,22.89
2023-03-01T12:29:34.339Z,22.84
2023-03-01T12:32:35.406Z,22.97
2023-03-01T12:35:50.155Z,23.04
2023-03-01T12:39:06.912Z,23.20
2023-03-01T12:42:07.654Z,23.12
2023-03-01T12:45:20.893Z,22.89
2023-03-01T12:48:37.339Z,22.93
2023-03-01T12:51:24.964Z,22.86
2023-03-01T12:54:25.629Z,22.93
2023-03-01T12:57:55.030Z,22.83
2023-03-01T13:01:16.400Z,22.82
2023-03-01T13:04:22.013Z,22.99
2023-03-01T13:07:36.233Z,23.01
2023-03-01T13:10:23.913Z,22.84
2023-03-01T13:13:33.424Z,22.87
2023-03-01T13:16:41.110Z,22.72
2023-03-01T13:19:37.878Z,22.58
2023-03-01T13:22:53.033Z,22.42
2023-03-01T13:25:43.415Z,22.45
2023-03-01T13:28:46.042Z,22.35
2023-03-01T13:31:37.995Z,22.35
2023-03-01T13:34:56.926Z,22.27
2023-03-01T13:37:47.205Z,22.22
2023-03-01T13:40:31.208Z,22.18
2023-03-01T13:43:46.197Z,22.07
2023-03-01T13:46:32.106Z,22.10
2023-03-01T13:49:31.518Z,22.06
2023-03-01T13:52:37.917Z,22.03
2023-03-01T13:55:32.377Z,21.93
2023-03-01T13:58:33.915Z,22.02
2023-03-01T14:01:35.502Z,22.08
2023-03-01T14:04:36.945Z,22.36
2023-03-01T14:07:32.584Z,22.24
2023-03-01T14:10:17.068Z,22.24
2023-03-01T14:13:33.328Z,22.07
2023-03-01T14:16:20.970Z,21.90
2023-03-01T14:19:45.552Z,21.99
2023-03-01T14:22:50.929Z,21.96
2023-03-01T14:25:47.880Z,22.21
2023-03-01T14:28:46.020Z,21.80
2023-03-01T14:31:57.487Z,21.66
2023-03-01T14:34:41.999Z,21.60
2023-03-01T14:37:41.274Z,21.41
2023-03-01T14:40:34.375Z,21.36
2023-03-01T14:43:32.279Z,21.55
2023-03-01T14:46:14.912Z,21.42
2023-03-01T14:49:19.328Z,21.32
2023-03-01T14:52:08.879Z,21.33
2023-03-01T14:55:00.183Z,21.61
2023-03-01T14:57:53.013Z,21.72
2023-03-01T15:00:40.265Z,21.54
2023-03-01T15:03:48.960Z,21.37
2023-03-01T15:06:32.755Z,21.26
2023-03-01T15:09:25.958Z,21.29
2023-03-01T15:12:08.270Z,21.24
2023-03-01T15:15:04.456Z,21.14
2023-03-01T15:17:48.269Z,21.14
2023-03-01T15:20:38.954Z,20.99
2023-03-01T15:23:48.263Z,20.86
2023-03-01T15:26:45.923Z,20.73
2023-03-01T15:29:32.301Z,20.60
2023-03-01T15:32:40.108Z,20.71
2023-03-01T15:35:54.123Z,20.51
2023-03-01T15:39:03.035Z,20.39
2023-03-01T15:41:57.537Z,20.30
2023-03-01T15:44:53.922Z,20.24
2023-03-01T15:47:39.253Z,20.18
2023-03-01T15:50:38.023Z,20.15
2023-03-01T15:53:23.475Z,20.16
2023-03-01T15:56:14.898Z,20.06
2023-03-01T15:59:11.198Z,20.01
2023-03-01T16:01:55.004Z,19.97
2023-03-01T16:04:44.429Z,19.95
2023-03-01T16:07:27.001Z,19.89
2023-03-01T16:10:16.178Z,19.85
2023-03-01T16:13:00.913Z,19.79
2023-03-01T16:15:50.269Z,19.80
2023-03-01T16:18:31.942Z,19.83
2023-03-01T16:21:28.233Z,19.80
2023-03-01T16:24:09.872Z,19.73
2023-03-01T16:26:58.942Z,19.71
2023-03-01T16:29:41.380Z,19.74
2023-03-01T16:32:30.028Z,19.67
2023-03-01T16:35:13.153Z,19.82
2023-03-01T16:38:02.853Z,19.82
2023-03-01T16:40:45.136Z,19.78
2023-03-01T16:43:35.400Z,19.77
2023-03-01T16:46:36.136Z,19.65
2023-03-01T16:49:24.878Z,19.63
2023-03-01T16:52:07.520Z,19.53
2023-03-01T16:54:56.892Z,19.51
2023-03-01T16:57:46.108Z,19.48
2023-03-01T17:00:28.497Z,19.52
2023-03-01T17:03:17.970Z,19.49
2023-03-01T17:06:10.231Z,19.44
2023-03-01T17:08:53.318Z,19.37
2023-03-01T17:11:42.831Z,19.30
2023-03-01T17:14:25.969Z,19.44
2023-03-01T17:17:14.327Z,19.65
2023-03-01T17:19:57.242Z,19.61
2023-03-01T17:22:46.334Z,19.54
2023-03-01T17:25:29.045Z,19.55
2023-03-01T17:28:11.440Z,19.56
2023-03-01T17:31:00.993Z,19.62
2023-03-01T17:33:51.405Z,19.68
2023-03-01T17:36:33.969Z,19.73
2023-03-01T17:39:26.897Z,19.82
2023-03-01T17:42:10.071Z,19.85
2023-03-01T17:44:58.924Z,19.82
2023-03-01T17:47:41.863Z,19.83
2023-03-01T17:50:30.886Z,19.82
2023-03-01T17:53:13.170Z,19.84
2023-03-01T17:56:08.888Z,19.93
2023-03-01T17:58:58.164Z,19.91
2023-03-01T18:01:41.105Z,20.10
2023-03-01T18:04:23.485Z,20.01
2023-03-01T18:07:11.922Z,19.94
2023-03-01T18:10:01.228Z,19.91
2023-03-01T18:12:44.028Z,19.98
2023-03-01T18:15:32.219Z,19.94
2023-03-01T18:18:15.224Z,19.94
2023-03-01T18:21:08.512Z,19.85
2023-03-01T18:23:52.000Z,19.84
2023-03-01T18:26:41.448Z,19.79
2023-03-01T18:29:24.032Z,19.72
2023-03-01T18:32:14.521Z,19.69
2023-03-01T18:34:57.996Z,19.63
2023-03-01T18:37:47.340Z,19.59
2023-03-01T18:40:30.054Z,19.54
2023-03-01T18:43:19.578Z,19.54
2023-03-01T18:46:07.035Z,19.49
2023-03-01T18:48:56.257Z,19.40
2023-03-01T18:51:38.899Z,19.34
2023-03-01T18:54:28.403Z,19.34
2023-03-01T18:57:23.974Z,19.31
2023-03-01T19:00:13.228Z,19.29
2023-03-01T19:02:56.002Z,19.27
2023-03-01T19:05:49.360Z,19.18
2023-03-01T19:08:31.970Z,19.08
2023-03-01T19:11:23.756Z,19.02
2023-03-01T19:14:07.936Z,18.96
2023-03-01T19:16:56.219Z,18.90
2023-03-01T19:19:39.908Z,18.88
2023-03-01T19:22:28.196Z,18.82
2023-03-01T19:25:10.987Z,18.81
2023-03-01T19:28:00.350Z,18.74
2023-03-01T19:30:42.208Z,18.69
2023-03-01T19:33:31.357Z,18.66
2023-03-01T19:36:15.976Z,18.63
2023-03-01T19:39:04.136Z,18.63
2023-03-01T19:41:49.063Z,18.62
2023-03-01T19:44:39.799Z,18.66
2023-03-01T19:47:22.976Z,18.60
2023-03-01T19:50:12.212Z,18.60
2023-03-01T19:52:54.873Z,18.62
2023-03-01T19:55:45.200Z,18.65
2023-03-01T19:58:35.843Z,18.65
2023-03-01T20:01:36.371Z,18.63
2023-03-01T20:04:25.021Z,18.63
2023-03-01T20:07:07.214Z,18.62
2023-03-01T20:09:55.854Z,18.61
2023-03-01T20:12:44.856Z,18.65
2023-03-01T20:15:34.084Z,18.73
2023-03-01T20:18:17.956Z,18.76
2023-03-01T20:21:21.738Z,18.78
2023-03-01T20:24:05.933Z,18.77
2023-03-01T20:26:48.318Z,18.73
2023-03-01T20:29:36.841Z,18.75
2023-03-01T20:32:25.100Z,18.76
2023-03-01T20:35:07.915Z,18.72
2023-03-01T20:37:52.564Z,18.70
2023-03-01T20:40:41.816Z,18.72
2023-03-01T20:43:30.129Z,18.82
2023-03-01T20:46:18.902Z,18.93
2023-03-01T20:49:01.485Z,19.00
2023-03-01T20:51:51.925Z,19.04
2023-03-01T20:54:41.172Z,19.01
2023-03-01T20:57:35.852Z,19.02
2023-03-01T21:00:25.293Z,18.95
2023-03-01T21:03:07.814Z,18.92
2023-03-01T21:05:57.541Z,18.91
2023-03-01T21:08:41.900Z,18.89
2023-03-01T21:11:27.803Z,18.92
2023-03-01T21:14:16.899Z,18.93
2023-03-01T21:17:06.254Z,18.94
2023-03-01T21:19:51.793Z,18.95
2023-03-01T21:22:42.781Z,18.92
2023-03-01T21:25:25.346Z,18.91
2023-03-01T21:28:13.843Z,18.91
2023-03-01T21:30:56.236Z,18.97
2023-03-01T21:33:46.915Z,18.95
2023-03-01T21:36:31.365Z,18.96
2023-03-01T21:39:23.674Z,18.92
2023-03-01T21:42:11.292Z,18.83
2023-03-01T21:44:59.803Z,18.79
2023-03-01T21:47:42.175Z,18.69
2023-03-01T21:50:30.895Z,18.60
2023-03-01T21:53:13.078Z,18.58
2023-03-01T21:56:01.884Z,18.62
2023-03-01T21:58:50.725Z,18.61
2023-03-01T22:01:34.838Z,18.56
2023-03-01T22:04:26.108Z,18.56
2023-03-01T22:07:08.833Z,18.56
2023-03-01T22:09:57.080Z,18.63
2023-03-01T22:12:39.844Z,18.61
2023-03-01T22:15:29.087Z,18.61
2023-03-01T22:18:12.814Z,18.59
2023-03-01T22:21:01.099Z,18.64
2023-03-01T22:23:44.861Z,18.64
2023-03-01T22:26:39.124Z,18.66
2023-03-01T22:29:30.821Z,18.68
2023-03-01T22:32:19.990Z,18.67
2023-03-01T22:35:02.082Z,18.57
2023-03-01T22:37:50.845Z,18.56
2023-03-01T22:40:40.062Z,18.56
2023-03-01T22:43:28.795Z,18.50
2023-03-01T22:46:25.850Z,18.40
2023-03-01T22:49:14.896Z,18.35
2023-03-01T22:52:04.948Z,18.26
2023-03-01T22:54:53.143Z,18.24
2023-03-01T22:57:47.848Z,18.22
2023-03-01T23:00:36.336Z,18.17
2023-03-01T23:03:18.957Z,18.08
2023-03-01T23:06:01.189Z,18.04
2023-03-01T23:08:49.884Z,17.92
2023-03-01T23:11:38.148Z,17.91
2023-03-01T23:14:21.181Z,17.89
2023-03-01T23:17:12.050Z,17.91
2023-03-01T23:19:54.784Z,17.89
2023-03-01T23:22:44.202Z,17.90
2023-03-01T23:25:26.839Z,17.95
2023-03-01T23:28:10.059Z,17.95
2023-03-01T23:31:07.860Z,17.92
2023-03-01T23:33:50.664Z,17.91
2023-03-01T23:36:42.851Z,18.00
2023-03-01T23:39:25.133Z,17.93
2023-03-01T23:42:13.875Z,17.89
2023-03-01T23:44:56.019Z,17.90
2023-03-01T23:47:44.846Z,17.89
2023-03-01T23:50:27.003Z,17.93
2023-03-01T23:53:15.866Z,17.95
2023-03-01T23:56:04.769Z,17.99
2023-03-01T23:58:59.621Z,18.04
